Airfield :
LOGIN :

Register | Disclaimer

   EN    FR    IT 

 










Legend :    VFR   Marginal VFR   IFR   Intensive IFR   Very Intensive IFR
Visi :
Ceiling :
>= 8 km
>= 3000ft
5 to 8 km
1000 to 3000 ft
1500m to 5 km
500 to 1000 ft
800 to 1500m
200 to 500 ft
< 800m
< 200 ft
Symbols :   Thunderstorms  Fog  Heavy snow  Heavy precipitations  Wind > 20 kt
SIGMETs :     Misc.  Thunderstorms  Icing  Turbulence  Mountain Waves  Volcanic Ashes






- Airport Elevation : 28 ft
- IATA code : OLA


ENOL - Ørland

CURRENT METAR :
  • 192050Z 12007KT CAVOK 16/12 Q1017 NOSIG

EXPIRED METARs :
  • 192020Z 13006KT CAVOK 17/12 Q1017 NOSIG
  • 191950Z 04005KT CAVOK 17/12 Q1017 NOSIG
  • 191920Z 35005KT CAVOK 17/13 Q1017 NOSIG
  • 191850Z 36007KT CAVOK 17/13 Q1017 NOSIG
  • 191820Z 36008KT CAVOK 18/12 Q1017 NOSIG
  • 191750Z 35008KT CAVOK 19/12 Q1017 NOSIG
  • 191720Z 35008KT CAVOK 19/12 Q1017 NOSIG
  • 191650Z 35008KT CAVOK 20/11 Q1018 NOSIG
  • 191620Z 01003KT 320V050 9999 FEW040 SCT200 20/11 Q1018 NOSIG
  • 191550Z 35007KT 9999 FEW040 SCT200 20/12 Q1018 NOSIG

TAF TAF ENOL
Valid from the 19 at 18:00 until the 20 at 18:00 UTC


191700Z 1918/2018 36007KT CAVOK
BECMG 1923/2001 10010KT
BECMG 2011/2013 35008KT



MET'MAP, your aeronautical weather chart ! - Copyright ORBIFLY December 2007 - Disclaimer

ORBIFLY MET'MAP TEAM :

Programming & Development : Alexandra Zaïnal
Original concept : Baudouin d'Aumeries
Technical & hardware support : Manuel Goepfert
Assistance : Marc-Olivier Méhu




SOURCES & CREDITS :

   NOAA